Observation data for Denver City on 08/13/2019      Previous  Date       Current Mesonet Observations  Soil Data  Daily Summary Page  Observations in Plain Language
KDVS 130500Z 32006KT 25/12 A2998 RMK A01 T02510117  RH  045%=      5-min Rain = 0
KDVS 130505Z 32006KT 25/12 A2998 RMK A01 T02500117  RH  045%=      5-min Rain = 0
KDVS 130510Z 31006KT 25/12 A2998 RMK A01 T02490118  RH  046%=      5-min Rain = 0
KDVS 130515Z 31006KT 25/12 A2998 RMK A01 T02470118  RH  046%=      5-min Rain = 0
KDVS 130520Z 31006KT 25/12 A2998 RMK A01 T02470120  RH  047%=      5-min Rain = 0
KDVS 130525Z 31006KT 25/12 A2998 RMK A01 T02470121  RH  047%=      5-min Rain = 0
KDVS 130530Z 31006KT 25/12 A2998 RMK A01 T02460122  RH  048%=      5-min Rain = 0
KDVS 130535Z 31006KT 25/12 A2998 RMK A01 T02450122  RH  048%=      5-min Rain = 0
KDVS 130540Z 31006KT 24/12 A2998 RMK A01 T02430123  RH  049%=      5-min Rain = 0
KDVS 130545Z 31006KT 24/13 A2998 RMK A01 T02420125  RH  050%=      5-min Rain = 0
KDVS 130550Z 31007KT 24/13 A2998 RMK A01 T02410126  RH  050%=      5-min Rain = 0
KDVS 130555Z 33006KT 24/13 A2998 RMK A01 T02400127  RH  051%=      5-min Rain = 0
KDVS 130600Z 32007KT 24/13 A2998 RMK A01 T02400127  RH  051%=      5-min Rain = 0
KDVS 130605Z 32007KT 24/13 A2998 RMK A01 T02440127  RH  050%=      5-min Rain = 0
KDVS 130610Z 32007KT 25/13 A2998 RMK A01 T02460127  RH  049%=      5-min Rain = 0
KDVS 130615Z 32007KT 24/13 A2998 RMK A01 T02440127  RH  050%=      5-min Rain = 0
KDVS 130620Z 32007KT 24/13 A2998 RMK A01 T02420128  RH  051%=      5-min Rain = 0
KDVS 130625Z 32006KT 24/13 A2998 RMK A01 T02420129  RH  051%=      5-min Rain = 0
KDVS 130630Z 32006KT 24/13 A2998 RMK A01 T02410130  RH  052%=      5-min Rain = 0
KDVS 130635Z 32006KT 24/13 A2998 RMK A01 T02390131  RH  053%=      5-min Rain = 0
KDVS 130640Z 32007KT 24/13 A2998 RMK A01 T02380132  RH  054%=      5-min Rain = 0
KDVS 130645Z 32007KT 24/13 A2998 RMK A01 T02380131  RH  053%=      5-min Rain = 0
KDVS 130650Z 33007KT 24/13 A2998 RMK A01 T02380130  RH  053%=      5-min Rain = 0
KDVS 130655Z 33007KT 24/13 A2998 RMK A01 T02400131  RH  052%=      5-min Rain = 0
KDVS 130700Z 32007KT 24/13 A2998 RMK A01 T02420132  RH  052%=      5-min Rain = 0
KDVS 130705Z 33007KT 24/13 A2999 RMK A01 T02420133  RH  052%=      5-min Rain = 0
KDVS 130710Z 34010KT 24/14 A2999 RMK A01 T02430135  RH  053%=      5-min Rain = 0
KDVS 130715Z 35010G16KT 24/14 A2999 RMK A01 T02440139  RH  054%=      5-min Rain = 0
KDVS 130720Z 36012G17KT 25/14 A30 RMK A01 T02460143  RH  055%=      5-min Rain = 0
KDVS 130725Z 00009KT 25/14 A2999 RMK A01 T02450144  RH  056%=      5-min Rain = 0
KDVS 130730Z 01008KT 24/15 A30 RMK A01 T02440145  RH  056%=      5-min Rain = 0
KDVS 130735Z 01008KT 24/14 A2999 RMK A01 T02420144  RH  057%=      5-min Rain = 0
KDVS 130740Z 01007KT 24/14 A2999 RMK A01 T02400144  RH  057%=      5-min Rain = 0
KDVS 130745Z 01007KT 24/14 A2999 RMK A01 T02370143  RH  058%=      5-min Rain = 0
KDVS 130750Z 01007KT 24/14 A2999 RMK A01 T02350143  RH  059%=      5-min Rain = 0
KDVS 130755Z 01007KT 23/14 A2999 RMK A01 T02340142  RH  059%=      5-min Rain = 0
KDVS 130800Z 01007KT 23/14 A30 RMK A01 T02320143  RH  060%=      5-min Rain = 0
KDVS 130805Z 01007KT 23/14 A30 RMK A01 T02300143  RH  060%=      5-min Rain = 0
KDVS 130810Z 01007KT 23/14 A30 RMK A01 T02290143  RH  061%=      5-min Rain = 0
KDVS 130815Z 01008KT 23/14 A30 RMK A01 T02280144  RH  062%=      5-min Rain = 0
KDVS 130820Z 01008KT 23/15 A30 RMK A01 T02260145  RH  063%=      5-min Rain = 0
KDVS 130825Z 02007KT 23/15 A30 RMK A01 T02260146  RH  063%=      5-min Rain = 0
KDVS 130830Z 01008KT 23/15 A30 RMK A01 T02250147  RH  064%=      5-min Rain = 0
KDVS 130835Z 01008KT 22/15 A30 RMK A01 T02240147  RH  065%=      5-min Rain = 0
KDVS 130840Z 01007KT 22/15 A30 RMK A01 T02230148  RH  065%=      5-min Rain = 0
KDVS 130845Z 01007KT 22/15 A30 RMK A01 T02220148  RH  065%=      5-min Rain = 0
KDVS 130850Z 01008KT 22/15 A30 RMK A01 T02220148  RH  066%=      5-min Rain = 0
KDVS 130855Z 01008KT 22/15 A30 RMK A01 T02220149  RH  066%=      5-min Rain = 0
KDVS 130900Z 01008KT 22/15 A30 RMK A01 T02220150  RH  067%=      5-min Rain = 0
KDVS 130905Z 04006G11KT 22/15 A3001 RMK A01 T02200150  RH  067%=      5-min Rain = 0
KDVS 130910Z 16009KT 22/15 A3002 RMK A01 T02180148  RH  067%=      5-min Rain = 0
KDVS 130915Z 12006G11KT 22/15 A3002 RMK A01 T02220149  RH  066%=      5-min Rain = 0
KDVS 130920Z 12007G12KT 22/15 A3003 RMK A01 T02240150  RH  066%=      5-min Rain = 0
KDVS 130925Z 11006KT 23/15 A3003 RMK A01 T02260150  RH  065%=      5-min Rain = 0
KDVS 130930Z 04007KT 23/15 A3002 RMK A01 T02250150  RH  066%=      5-min Rain = 0
KDVS 130935Z 11005KT 22/15 A3003 RMK A01 T02240150  RH  066%=      5-min Rain = 0
KDVS 130940Z 02007KT 22/15 A3002 RMK A01 T02210150  RH  067%=      5-min Rain = 0
KDVS 130945Z 05004KT 22/15 A3002 RMK A01 T02190150  RH  068%=      5-min Rain = 0
KDVS 130950Z 09004KT 22/15 A3003 RMK A01 T02170150  RH  069%=      5-min Rain = 0
KDVS 130955Z 03007KT 21/15 A3002 RMK A01 T02140150  RH  070%=      5-min Rain = 0
KDVS 131000Z 04003KT 21/15 A3002 RMK A01 T02130151  RH  071%=      5-min Rain = 0
KDVS 131005Z 02001KT 21/15 A3003 RMK A01 T02120150  RH  071%=      5-min Rain = 0
KDVS 131010Z 01005KT 21/15 A3002 RMK A01 T02110150  RH  071%=      5-min Rain = 0
KDVS 131015Z 00008KT 21/15 A3002 RMK A01 T02090151  RH  073%=      5-min Rain = 0
KDVS 131020Z 00007KT 21/15 A3002 RMK A01 T02100152  RH  072%=      5-min Rain = 0
KDVS 131025Z 35007KT 21/15 A3002 RMK A01 T02120152  RH  072%=      5-min Rain = 0
KDVS 131030Z 35007KT 21/15 A3002 RMK A01 T02130153  RH  072%=      5-min Rain = 0
KDVS 131035Z 35007KT 21/15 A3002 RMK A01 T02140153  RH  072%=      5-min Rain = 0
KDVS 131040Z 35006KT 21/15 A3002 RMK A01 T02120153  RH  072%=      5-min Rain = 0
KDVS 131045Z 35006KT 21/15 A3002 RMK A01 T02100153  RH  073%=      5-min Rain = 0
KDVS 131050Z 35006KT 21/15 A3002 RMK A01 T02090153  RH  074%=      5-min Rain = 0
KDVS 131055Z 36007KT 21/15 A3002 RMK A01 T02080153  RH  074%=      5-min Rain = 0
KDVS 131100Z 36007KT 21/15 A3002 RMK A01 T02080154  RH  074%=      5-min Rain = 0
KDVS 131105Z 01006KT 21/15 A3003 RMK A01 T02070154  RH  075%=      5-min Rain = 0
KDVS 131110Z 00006KT 21/15 A3003 RMK A01 T02070154  RH  075%=      5-min Rain = 0
KDVS 131115Z 36006KT 21/15 A3003 RMK A01 T02050154  RH  076%=      5-min Rain = 0
KDVS 131120Z 35008KT 21/15 A3003 RMK A01 T02050154  RH  076%=      5-min Rain = 0
KDVS 131125Z 35008KT 21/15 A3004 RMK A01 T02050154  RH  076%=      5-min Rain = 0
KDVS 131130Z 35008KT 20/16 A3004 RMK A01 T02040155  RH  077%=      5-min Rain = 0
KDVS 131135Z 35009KT 20/16 A3004 RMK A01 T02040155  RH  077%=      5-min Rain = 0
KDVS 131140Z 35008KT 20/16 A3004 RMK A01 T02040155  RH  077%=      5-min Rain = 0
KDVS 131145Z 36008KT 20/16 A3004 RMK A01 T02030155  RH  077%=      5-min Rain = 0
KDVS 131150Z 35008KT 20/16 A3005 RMK A01 T02020155  RH  078%=      5-min Rain = 0
KDVS 131155Z 35009KT 20/16 A3005 RMK A01 T02010155  RH  078%=      5-min Rain = 0
KDVS 131200Z 35007KT 20/16 A3005 RMK A01 T02010155  RH  079%=      5-min Rain = 0
KDVS 131205Z 35007KT 20/16 A3005 RMK A01 T02000156  RH  079%=      5-min Rain = 0
KDVS 131210Z 36008KT 20/16 A3005 RMK A01 T02000156  RH  080%=      5-min Rain = 0
KDVS 131215Z 00008KT 20/16 A3005 RMK A01 T01990156  RH  080%=      5-min Rain = 0
KDVS 131220Z 00008KT 20/16 A3005 RMK A01 T01990157  RH  080%=      5-min Rain = 0
KDVS 131225Z 00008KT 20/16 A3005 RMK A01 T01980157  RH  081%=      5-min Rain = 0
KDVS 131230Z 00009KT 20/16 A3005 RMK A01 T01980157  RH  081%=      5-min Rain = 0
KDVS 131235Z 36007KT 20/16 A3005 RMK A01 T01980157  RH  081%=      5-min Rain = 0
KDVS 131240Z 01008KT 20/16 A3006 RMK A01 T01990158  RH  081%=      5-min Rain = 0
KDVS 131245Z 00008KT 20/16 A3006 RMK A01 T02000158  RH  081%=      5-min Rain = 0
KDVS 131250Z 36009KT 20/16 A3006 RMK A01 T02000159  RH  081%=      5-min Rain = 0
KDVS 131255Z 01009KT 20/16 A3006 RMK A01 T02020160  RH  080%=      5-min Rain = 0
KDVS 131300Z 00010G15KT 20/16 A3006 RMK A01 T02040161  RH  080%=      5-min Rain = 0
KDVS 131305Z 01010KT 21/16 A3006 RMK A01 T02060161  RH  079%=      5-min Rain = 0
KDVS 131310Z 01011KT 21/16 A3006 RMK A01 T02080162  RH  078%=      5-min Rain = 0
KDVS 131315Z 02011KT 21/16 A3007 RMK A01 T02100163  RH  078%=      5-min Rain = 0
KDVS 131320Z 01012KT 21/16 A3007 RMK A01 T02120163  RH  077%=      5-min Rain = 0
KDVS 131325Z 01012KT 21/16 A3007 RMK A01 T02130163  RH  077%=      5-min Rain = 0
KDVS 131330Z 02013KT 22/16 A3007 RMK A01 T02150163  RH  076%=      5-min Rain = 0
KDVS 131335Z 01011KT 21/16 A3007 RMK A01 T02130164  RH  077%=      5-min Rain = 0
KDVS 131340Z 01012KT 21/16 A3007 RMK A01 T02130164  RH  077%=      5-min Rain = 0
KDVS 131345Z 02011KT 22/16 A3007 RMK A01 T02150164  RH  077%=      5-min Rain = 0
KDVS 131350Z 01010KT 22/17 A3007 RMK A01 T02170165  RH  076%=      5-min Rain = 0
KDVS 131355Z 01011KT 22/17 A3007 RMK A01 T02240166  RH  073%=      5-min Rain = 0
KDVS 131400Z 01010KT 23/17 A3007 RMK A01 T02280166  RH  072%=      5-min Rain = 0
KDVS 131405Z 01011KT 23/17 A3007 RMK A01 T02270166  RH  072%=      5-min Rain = 0
KDVS 131410Z 01011KT 23/17 A3007 RMK A01 T02280166  RH  071%=      5-min Rain = 0
KDVS 131415Z 02011KT 23/17 A3008 RMK A01 T02300166  RH  071%=      5-min Rain = 0
KDVS 131420Z 03012KT 23/17 A3008 RMK A01 T02300166  RH  071%=      5-min Rain = 0
KDVS 131425Z 01011KT 23/17 A3008 RMK A01 T02310166  RH  070%=      5-min Rain = 0
KDVS 131430Z 02012KT 23/17 A3008 RMK A01 T02320166  RH  070%=      5-min Rain = 0
KDVS 131435Z 01012KT 24/17 A3008 RMK A01 T02350166  RH  069%=      5-min Rain = 0
KDVS 131440Z 01013KT 24/17 A3007 RMK A01 T02360166  RH  068%=      5-min Rain = 0
KDVS 131445Z 02013KT 24/17 A3007 RMK A01 T02370166  RH  068%=      5-min Rain = 0
KDVS 131450Z 01012KT 24/17 A3008 RMK A01 T02400166  RH  066%=      5-min Rain = 0
KDVS 131455Z 01012KT 24/17 A3008 RMK A01 T02430166  RH  065%=      5-min Rain = 0
KDVS 131500Z 02010KT 25/17 A3008 RMK A01 T02490167  RH  063%=      5-min Rain = 0
KDVS 131505Z 00011KT 25/17 A3008 RMK A01 T02520166  RH  062%=      5-min Rain = 0
KDVS 131510Z 02010G15KT 25/17 A3008 RMK A01 T02510166  RH  062%=      5-min Rain = 0
KDVS 131515Z 00010KT 26/17 A3009 RMK A01 T02550165  RH  060%=      5-min Rain = 0
KDVS 131520Z 01011KT 26/16 A3009 RMK A01 T02590164  RH  059%=      5-min Rain = 0
KDVS 131525Z 01011G16KT 26/17 A3009 RMK A01 T02610165  RH  058%=      5-min Rain = 0
KDVS 131530Z 01011KT 26/16 A3009 RMK A01 T02610164  RH  058%=      5-min Rain = 0
KDVS 131535Z 01010G16KT 27/16 A3009 RMK A01 T02650164  RH  057%=      5-min Rain = 0
KDVS 131540Z 02012KT 27/16 A3009 RMK A01 T02650164  RH  056%=      5-min Rain = 0
KDVS 131545Z 02012KT 27/16 A3009 RMK A01 T02670162  RH  055%=      5-min Rain = 0
KDVS 131550Z 01011KT 27/16 A301 RMK A01 T02700162  RH  054%=      5-min Rain = 0
KDVS 131555Z 01012KT 27/16 A301 RMK A01 T02720161  RH  053%=      5-min Rain = 0
KDVS 131600Z 01012KT 28/16 A301 RMK A01 T02750161  RH  052%=      5-min Rain = 0
KDVS 131605Z 02011KT 28/16 A301 RMK A01 T02780163  RH  052%=      5-min Rain = 0
KDVS 131610Z 01012G18KT 28/16 A301 RMK A01 T02780162  RH  052%=      5-min Rain = 0
KDVS 131615Z 01012G17KT 28/16 A301 RMK A01 T02800162  RH  051%=      5-min Rain = 0
KDVS 131620Z 02011G16KT 28/16 A301 RMK A01 T02840162  RH  050%=      5-min Rain = 0
KDVS 131625Z 02010KT 29/16 A301 RMK A01 T02850161  RH  049%=      5-min Rain = 0
KDVS 131630Z 02012G18KT 29/16 A301 RMK A01 T02870161  RH  049%=      5-min Rain = 0
KDVS 131635Z 03010G18KT 29/16 A301 RMK A01 T02890162  RH  048%=      5-min Rain = 0
KDVS 131640Z 03010KT 29/16 A301 RMK A01 T02890161  RH  048%=      5-min Rain = 0
KDVS 131645Z 01010KT 29/16 A301 RMK A01 T02890160  RH  048%=      5-min Rain = 0
KDVS 131650Z 01011KT 30/16 A301 RMK A01 T02950160  RH  046%=      5-min Rain = 0
KDVS 131655Z 04011G16KT 30/16 A301 RMK A01 T02970158  RH  045%=      5-min Rain = 0
KDVS 131700Z 02011G17KT 30/16 A3011 RMK A01 T03010155  RH  043%=      5-min Rain = 0
KDVS 131705Z 03011G17KT 30/16 A3011 RMK A01 T03030155  RH  043%=      5-min Rain = 0
KDVS 131710Z 02012G17KT 30/16 A3011 RMK A01 T03030155  RH  043%=      5-min Rain = 0
KDVS 131715Z 02013G18KT 31/15 A3011 RMK A01 T03070153  RH  041%=      5-min Rain = 0
KDVS 131720Z 02013G18KT 31/15 A3011 RMK A01 T03070152  RH  041%=      5-min Rain = 0
KDVS 131725Z 03013G19KT 31/15 A301 RMK A01 T03090150  RH  040%=      5-min Rain = 0
KDVS 131730Z 03014G20KT 31/15 A301 RMK A01 T03120148  RH  039%=      5-min Rain = 0
KDVS 131735Z 04014G19KT 31/15 A301 RMK A01 T03130147  RH  038%=      5-min Rain = 0
KDVS 131740Z 04014G19KT 31/15 A301 RMK A01 T03110147  RH  039%=      5-min Rain = 0
KDVS 131745Z 02012G19KT 31/15 A301 RMK A01 T03080147  RH  039%=      5-min Rain = 0
KDVS 131750Z 02014KT 31/15 A301 RMK A01 T03100145  RH  038%=      5-min Rain = 0
KDVS 131755Z 01013G20KT 31/15 A301 RMK A01 T03110146  RH  039%=      5-min Rain = 0
KDVS 131800Z 01015G20KT 31/15 A301 RMK A01 T03130145  RH  038%=      5-min Rain = 0
KDVS 131805Z 02013G19KT 31/15 A3011 RMK A01 T03110149  RH  039%=      5-min Rain = 0
KDVS 131810Z 03013G19KT 32/15 A3011 RMK A01 T03180146  RH  037%=      5-min Rain = 0
KDVS 131815Z 04015G20KT 32/15 A3011 RMK A01 T03180145  RH  037%=      5-min Rain = 0
KDVS 131820Z 03013G19KT 32/14 A3011 RMK A01 T03170144  RH  037%=      5-min Rain = 0
KDVS 131825Z 04014G19KT 32/14 A3011 RMK A01 T03180143  RH  036%=      5-min Rain = 0
KDVS 131830Z 04012G18KT 32/15 A3011 RMK A01 T03160146  RH  037%=      5-min Rain = 0
KDVS 131835Z 04012G18KT 32/15 A3011 RMK A01 T03180145  RH  036%=      5-min Rain = 0
KDVS 131840Z 04013G20KT 32/15 A3011 RMK A01 T03230145  RH  036%=      5-min Rain = 0
KDVS 131845Z 04010G16KT 32/15 A301 RMK A01 T03240145  RH  036%=      5-min Rain = 0
KDVS 131850Z 05013G19KT 33/14 A301 RMK A01 T03280141  RH  034%=      5-min Rain = 0
KDVS 131855Z 05012G19KT 32/14 A301 RMK A01 T03230142  RH  035%=      5-min Rain = 0
KDVS 131900Z 04013G18KT 32/15 A301 RMK A01 T03240145  RH  035%=      5-min Rain = 0
KDVS 131905Z 03014KT 32/14 A301 RMK A01 T03240142  RH  035%=      5-min Rain = 0
KDVS 131910Z 05013G19KT 32/14 A301 RMK A01 T03240144  RH  035%=      5-min Rain = 0
KDVS 131915Z 04015G21KT 33/15 A301 RMK A01 T03270145  RH  035%=      5-min Rain = 0
KDVS 131920Z 04013G20KT 33/14 A301 RMK A01 T03310143  RH  033%=      5-min Rain = 0
KDVS 131925Z 04011G16KT 33/15 A3009 RMK A01 T03300145  RH  034%=      5-min Rain = 0
KDVS 131930Z 07014KT 33/14 A301 RMK A01 T03290142  RH  034%=      5-min Rain = 0
KDVS 131935Z 07013G20KT 33/14 A3009 RMK A01 T03250143  RH  035%=      5-min Rain = 0
KDVS 131940Z 05013G18KT 33/14 A3009 RMK A01 T03290143  RH  034%=      5-min Rain = 0
KDVS 131945Z 04013G19KT 33/15 A3009 RMK A01 T03270146  RH  035%=      5-min Rain = 0
KDVS 131950Z 06013G19KT 33/14 A3009 RMK A01 T03310144  RH  034%=      5-min Rain = 0
KDVS 131955Z 05013G18KT 33/14 A3009 RMK A01 T03330144  RH  033%=      5-min Rain = 0
KDVS 132000Z 05013G18KT 34/15 A3009 RMK A01 T03370145  RH  033%=      5-min Rain = 0
KDVS 132005Z 07014G20KT 33/14 A3009 RMK A01 T03310142  RH  033%=      5-min Rain = 0
KDVS 132010Z 07012G19KT 33/14 A3009 RMK A01 T03330143  RH  033%=      5-min Rain = 0
KDVS 132015Z 06013G19KT 33/14 A3009 RMK A01 T03340142  RH  033%=      5-min Rain = 0
KDVS 132020Z 04014G19KT 33/14 A3008 RMK A01 T03340139  RH  032%=      5-min Rain = 0
KDVS 132025Z 05011G18KT 33/14 A3008 RMK A01 T03300138  RH  032%=      5-min Rain = 0
KDVS 132030Z 06012G18KT 33/14 A3008 RMK A01 T03290138  RH  033%=      5-min Rain = 0
KDVS 132035Z 06012G17KT 33/14 A3008 RMK A01 T03280140  RH  033%=      5-min Rain = 0
KDVS 132040Z 07013G18KT 33/14 A3008 RMK A01 T03270142  RH  034%=      5-min Rain = 0
KDVS 132045Z 06011G17KT 33/14 A3007 RMK A01 T03340143  RH  033%=      5-min Rain = 0
KDVS 132050Z 06012G18KT 34/14 A3007 RMK A01 T03360143  RH  033%=      5-min Rain = 0
KDVS 132055Z 07012G19KT 34/14 A3007 RMK A01 T03370142  RH  032%=      5-min Rain = 0
KDVS 132100Z 07011G18KT 34/14 A3007 RMK A01 T03390142  RH  032%=      5-min Rain = 0
KDVS 132105Z 08011G17KT 34/14 A3007 RMK A01 T03380140  RH  032%=      5-min Rain = 0
KDVS 132110Z 08013KT 34/14 A3006 RMK A01 T03400139  RH  031%=      5-min Rain = 0
KDVS 132115Z 08011G16KT 34/14 A3006 RMK A01 T03400137  RH  031%=      5-min Rain = 0
KDVS 132120Z 08014G19KT 34/14 A3006 RMK A01 T03420138  RH  031%=      5-min Rain = 0
KDVS 132125Z 07012G20KT 34/14 A3006 RMK A01 T03410139  RH  031%=      5-min Rain = 0
KDVS 132130Z 06012G20KT 34/14 A3006 RMK A01 T03420139  RH  031%=      5-min Rain = 0
KDVS 132135Z 07013G18KT 34/14 A3006 RMK A01 T03420139  RH  031%=      5-min Rain = 0
KDVS 132140Z 08010G15KT 34/14 A3006 RMK A01 T03400138  RH  031%=      5-min Rain = 0
KDVS 132145Z 07015G20KT 34/14 A3006 RMK A01 T03420135  RH  030%=      5-min Rain = 0
KDVS 132150Z 08012KT 34/13 A3006 RMK A01 T03410132  RH  030%=      5-min Rain = 0
KDVS 132155Z 07009G14KT 34/13 A3005 RMK A01 T03420131  RH  029%=      5-min Rain = 0
KDVS 132200Z 06010G16KT 34/14 A3005 RMK A01 T03440135  RH  030%=      5-min Rain = 0
KDVS 132205Z 06013G21KT 35/14 A3005 RMK A01 T03450135  RH  030%=      5-min Rain = 0
KDVS 132210Z 07012G18KT 35/14 A3005 RMK A01 T03500136  RH  029%=      5-min Rain = 0
KDVS 132215Z 07012G18KT 34/13 A3004 RMK A01 T03430134  RH  030%=      5-min Rain = 0
KDVS 132220Z 05011G19KT 34/13 A3004 RMK A01 T03430132  RH  029%=      5-min Rain = 0
KDVS 132225Z 08011KT 34/13 A3004 RMK A01 T03440131  RH  029%=      5-min Rain = 0
KDVS 132230Z 06011G16KT 35/13 A3004 RMK A01 T03450129  RH  028%=      5-min Rain = 0
KDVS 132235Z 05011G16KT 34/13 A3004 RMK A01 T03410129  RH  029%=      5-min Rain = 0
KDVS 132240Z 05010G16KT 34/13 A3004 RMK A01 T03410130  RH  029%=      5-min Rain = 0
KDVS 132245Z 03012KT 34/13 A3004 RMK A01 T03420128  RH  029%=      5-min Rain = 0
KDVS 132250Z 06010KT 34/13 A3004 RMK A01 T03420130  RH  029%=      5-min Rain = 0
KDVS 132255Z 06012G17KT 34/13 A3005 RMK A01 T03410131  RH  029%=      5-min Rain = 0
KDVS 132300Z 07010G16KT 34/13 A3004 RMK A01 T03410128  RH  029%=      5-min Rain = 0
KDVS 132305Z 05010KT 34/13 A3004 RMK A01 T03390127  RH  029%=      5-min Rain = 0
KDVS 132310Z 07011KT 34/13 A3004 RMK A01 T03400127  RH  029%=      5-min Rain = 0
KDVS 132315Z 06011KT 34/13 A3004 RMK A01 T03400127  RH  029%=      5-min Rain = 0
KDVS 132320Z 03009G14KT 34/13 A3004 RMK A01 T03390127  RH  029%=      5-min Rain = 0
KDVS 132325Z 05011KT 34/13 A3004 RMK A01 T03390128  RH  029%=      5-min Rain = 0
KDVS 132330Z 05009G15KT 34/13 A3004 RMK A01 T03380126  RH  029%=      5-min Rain = 0
KDVS 132335Z 06010G16KT 34/13 A3004 RMK A01 T03390128  RH  029%=      5-min Rain = 0
KDVS 132340Z 07011G18KT 34/13 A3004 RMK A01 T03390131  RH  030%=      5-min Rain = 0
KDVS 132345Z 07013G20KT 34/13 A3004 RMK A01 T03380134  RH  030%=      5-min Rain = 0
KDVS 132350Z 05011KT 34/13 A3004 RMK A01 T03360130  RH  030%=      5-min Rain = 0
KDVS 132355Z 06010G15KT 34/13 A3004 RMK A01 T03350130  RH  030%=      5-min Rain = 0
KDVS 140000Z 07011G16KT 33/13 A3004 RMK A01 T03330129  RH  030%=      5-min Rain = 0
KDVS 140005Z 07008KT 33/13 A3004 RMK A01 T03320129  RH  030%=      5-min Rain = 0
KDVS 140010Z 06011G16KT 33/13 A3005 RMK A01 T03340128  RH  030%=      5-min Rain = 0
KDVS 140015Z 06011KT 33/13 A3005 RMK A01 T03280130  RH  031%=      5-min Rain = 0
KDVS 140020Z 05011KT 32/13 A3005 RMK A01 T03210129  RH  032%=      5-min Rain = 0
KDVS 140025Z 04009KT 32/13 A3006 RMK A01 T03180128  RH  033%=      5-min Rain = 0
KDVS 140030Z 06009KT 32/13 A3006 RMK A01 T03160127  RH  033%=      5-min Rain = 0
KDVS 140035Z 06009KT 31/13 A3006 RMK A01 T03140128  RH  033%=      5-min Rain = 0
KDVS 140040Z 06009KT 31/13 A3006 RMK A01 T03140128  RH  033%=      5-min Rain = 0
KDVS 140045Z 05007KT 32/13 A3006 RMK A01 T03150128  RH  033%=      5-min Rain = 0
KDVS 140050Z 05008KT 31/13 A3006 RMK A01 T03140128  RH  033%=      5-min Rain = 0
KDVS 140055Z 06008KT 31/13 A3006 RMK A01 T03130129  RH  034%=      5-min Rain = 0
KDVS 140100Z 06008KT 31/13 A3006 RMK A01 T03120132  RH  035%=      5-min Rain = 0
KDVS 140105Z 06009KT 31/13 A3006 RMK A01 T03110133  RH  035%=      5-min Rain = 0
KDVS 140110Z 06009KT 31/13 A3006 RMK A01 T03100133  RH  035%=      5-min Rain = 0
KDVS 140115Z 06008KT 31/13 A3007 RMK A01 T03090134  RH  036%=      5-min Rain = 0
KDVS 140120Z 06009KT 31/14 A3007 RMK A01 T03080135  RH  036%=      5-min Rain = 0
KDVS 140125Z 07007KT 31/14 A3007 RMK A01 T03070136  RH  037%=      5-min Rain = 0
KDVS 140130Z 07006KT 31/14 A3007 RMK A01 T03050136  RH  037%=      5-min Rain = 0
KDVS 140135Z 07006KT 30/14 A3008 RMK A01 T03030137  RH  038%=      5-min Rain = 0
KDVS 140140Z 06007KT 30/14 A3008 RMK A01 T03020137  RH  038%=      5-min Rain = 0
KDVS 140145Z 06006KT 30/14 A3008 RMK A01 T03010137  RH  038%=      5-min Rain = 0
KDVS 140150Z 06007KT 30/14 A3008 RMK A01 T03000137  RH  039%=      5-min Rain = 0
KDVS 140155Z 06007KT 30/14 A3008 RMK A01 T02990138  RH  039%=      5-min Rain = 0
KDVS 140200Z 06006KT 30/14 A3007 RMK A01 T02970138  RH  039%=      5-min Rain = 0
KDVS 140205Z 06006KT 30/14 A3007 RMK A01 T02960138  RH  040%=      5-min Rain = 0
KDVS 140210Z 06007KT 30/14 A3007 RMK A01 T02950139  RH  040%=      5-min Rain = 0
KDVS 140215Z 07006KT 30/14 A3007 RMK A01 T02950139  RH  040%=      5-min Rain = 0
KDVS 140220Z 07007KT 29/14 A3007 RMK A01 T02940139  RH  040%=      5-min Rain = 0
KDVS 140225Z 07007KT 29/14 A3007 RMK A01 T02930139  RH  041%=      5-min Rain = 0
KDVS 140230Z 07007KT 29/14 A3007 RMK A01 T02920140  RH  041%=      5-min Rain = 0
KDVS 140235Z 07007KT 29/14 A3008 RMK A01 T02920140  RH  041%=      5-min Rain = 0
KDVS 140240Z 07007KT 29/14 A3008 RMK A01 T02920141  RH  042%=      5-min Rain = 0
KDVS 140245Z 07007KT 29/14 A3008 RMK A01 T02910142  RH  042%=      5-min Rain = 0
KDVS 140250Z 07007KT 29/14 A3009 RMK A01 T02890142  RH  042%=      5-min Rain = 0
KDVS 140255Z 06006KT 29/14 A3009 RMK A01 T02880143  RH  043%=      5-min Rain = 0
KDVS 140300Z 07007KT 29/14 A3009 RMK A01 T02870143  RH  043%=      5-min Rain = 0
KDVS 140305Z 06007KT 29/14 A301 RMK A01 T02860144  RH  044%=      5-min Rain = 0
KDVS 140310Z 06007KT 29/14 A301 RMK A01 T02850144  RH  044%=      5-min Rain = 0
KDVS 140315Z 05006KT 28/15 A3011 RMK A01 T02840145  RH  044%=      5-min Rain = 0
KDVS 140320Z 05007KT 28/15 A3011 RMK A01 T02830146  RH  045%=      5-min Rain = 0
KDVS 140325Z 05007KT 28/15 A3011 RMK A01 T02820146  RH  046%=      5-min Rain = 0
KDVS 140330Z 04007KT 28/15 A3012 RMK A01 T02810147  RH  046%=      5-min Rain = 0
KDVS 140335Z 05008KT 28/15 A3012 RMK A01 T02810147  RH  046%=      5-min Rain = 0
KDVS 140340Z 05008KT 28/15 A3012 RMK A01 T02810148  RH  046%=      5-min Rain = 0
KDVS 140345Z 06008KT 28/15 A3012 RMK A01 T02800148  RH  046%=      5-min Rain = 0
KDVS 140350Z 06009KT 28/15 A3012 RMK A01 T02790148  RH  047%=      5-min Rain = 0
KDVS 140355Z 07010KT 28/15 A3012 RMK A01 T02800148  RH  046%=      5-min Rain = 0
KDVS 140400Z 07011KT 28/15 A3013 RMK A01 T02810148  RH  046%=      5-min Rain = 0
KDVS 140405Z 08012KT 28/15 A3013 RMK A01 T02810148  RH  046%=      5-min Rain = 0
KDVS 140410Z 08011KT 28/15 A3013 RMK A01 T02810148  RH  046%=      5-min Rain = 0
KDVS 140415Z 08011KT 28/15 A3013 RMK A01 T02800148  RH  047%=      5-min Rain = 0
KDVS 140420Z 08011KT 28/15 A3013 RMK A01 T02790148  RH  047%=      5-min Rain = 0
KDVS 140425Z 07011KT 28/15 A3013 RMK A01 T02790149  RH  047%=      5-min Rain = 0
KDVS 140430Z 07012KT 28/15 A3013 RMK A01 T02780149  RH  047%=      5-min Rain = 0
KDVS 140435Z 07012KT 28/15 A3013 RMK A01 T02780150  RH  048%=      5-min Rain = 0
KDVS 140440Z 08011KT 28/15 A3013 RMK A01 T02770150  RH  048%=      5-min Rain = 0
KDVS 140445Z 08010KT 28/15 A3013 RMK A01 T02760150  RH  048%=      5-min Rain = 0
KDVS 140450Z 08011KT 27/15 A3014 RMK A01 T02740151  RH  049%=      5-min Rain = 0
KDVS 140455Z 08010KT 27/15 A3014 RMK A01 T02730151  RH  049%=      5-min Rain = 0

Page generated in 0.0097 seconds.